sensor_id;sensor_type;location;lat;lon;timestamp;P1;durP1;ratioP1;P2;durP2;ratioP2
57047;SDS011;42934;54.294;18.598;2024-01-06T00:02:07;64.00;;;26.83;;
57047;SDS011;42934;54.294;18.598;2024-01-06T00:04:36;62.87;;;26.47;;
57047;SDS011;42934;54.294;18.598;2024-01-06T00:07:05;57.30;;;23.90;;
57047;SDS011;42934;54.294;18.598;2024-01-06T00:09:36;46.95;;;20.70;;
57047;SDS011;42934;54.294;18.598;2024-01-06T00:12:05;52.58;;;20.80;;
57047;SDS011;42934;54.294;18.598;2024-01-06T00:14:35;50.33;;;19.08;;
57047;SDS011;42934;54.294;18.598;2024-01-06T00:17:04;60.85;;;23.65;;
57047;SDS011;42934;54.294;18.598;2024-01-06T00:19:33;54.13;;;21.33;;
57047;SDS011;42934;54.294;18.598;2024-01-06T00:22:03;64.57;;;23.67;;
57047;SDS011;42934;54.294;18.598;2024-01-06T00:24:32;61.33;;;21.23;;
57047;SDS011;42934;54.294;18.598;2024-01-06T00:27:03;66.18;;;24.60;;
57047;SDS011;42934;54.294;18.598;2024-01-06T00:29:32;129.63;;;40.17;;
57047;SDS011;42934;54.294;18.598;2024-01-06T00:32:01;52.08;;;21.52;;
57047;SDS011;42934;54.294;18.598;2024-01-06T00:34:31;63.63;;;25.15;;
57047;SDS011;42934;54.294;18.598;2024-01-06T00:37:00;47.10;;;19.43;;
57047;SDS011;42934;54.294;18.598;2024-01-06T00:39:30;44.35;;;18.73;;
57047;SDS011;42934;54.294;18.598;2024-01-06T00:41:59;42.20;;;18.20;;
57047;SDS011;42934;54.294;18.598;2024-01-06T00:44:29;56.25;;;23.23;;
57047;SDS011;42934;54.294;18.598;2024-01-06T00:46:58;97.60;;;33.95;;
57047;SDS011;42934;54.294;18.598;2024-01-06T00:49:28;84.35;;;28.85;;
57047;SDS011;42934;54.294;18.598;2024-01-06T00:51:57;37.80;;;16.00;;
57047;SDS011;42934;54.294;18.598;2024-01-06T00:54:26;63.90;;;21.70;;
57047;SDS011;42934;54.294;18.598;2024-01-06T00:56:56;35.90;;;15.18;;
57047;SDS011;42934;54.294;18.598;2024-01-06T00:59:25;63.35;;;25.67;;
57047;SDS011;42934;54.294;18.598;2024-01-06T01:01:55;65.07;;;23.63;;
57047;SDS011;42934;54.294;18.598;2024-01-06T01:04:25;112.45;;;43.58;;
57047;SDS011;42934;54.294;18.598;2024-01-06T01:06:54;88.85;;;35.17;;
57047;SDS011;42934;54.294;18.598;2024-01-06T01:09:23;103.70;;;40.73;;
57047;SDS011;42934;54.294;18.598;2024-01-06T01:11:52;117.68;;;46.85;;
57047;SDS011;42934;54.294;18.598;2024-01-06T01:14:21;61.63;;;26.80;;
57047;SDS011;42934;54.294;18.598;2024-01-06T01:16:50;61.10;;;27.38;;
57047;SDS011;42934;54.294;18.598;2024-01-06T01:19:21;82.53;;;32.72;;
57047;SDS011;42934;54.294;18.598;2024-01-06T01:21:50;84.90;;;32.47;;
57047;SDS011;42934;54.294;18.598;2024-01-06T01:24:22;75.03;;;32.65;;
57047;SDS011;42934;54.294;18.598;2024-01-06T01:26:51;64.47;;;28.58;;
57047;SDS011;42934;54.294;18.598;2024-01-06T01:29:21;59.05;;;25.90;;
57047;SDS011;42934;54.294;18.598;2024-01-06T01:31:50;56.40;;;24.00;;
57047;SDS011;42934;54.294;18.598;2024-01-06T01:34:21;58.30;;;24.95;;
57047;SDS011;42934;54.294;18.598;2024-01-06T01:36:50;48.58;;;23.48;;
57047;SDS011;42934;54.294;18.598;2024-01-06T01:39:20;57.35;;;23.67;;
57047;SDS011;42934;54.294;18.598;2024-01-06T01:41:49;82.03;;;33.47;;
57047;SDS011;42934;54.294;18.598;2024-01-06T01:44:18;62.35;;;26.20;;
57047;SDS011;42934;54.294;18.598;2024-01-06T01:46:47;56.95;;;23.73;;
57047;SDS011;42934;54.294;18.598;2024-01-06T01:49:17;56.78;;;23.10;;
57047;SDS011;42934;54.294;18.598;2024-01-06T01:51:49;71.22;;;29.70;;
57047;SDS011;42934;54.294;18.598;2024-01-06T01:54:19;53.58;;;24.05;;
57047;SDS011;42934;54.294;18.598;2024-01-06T01:56:48;60.22;;;24.73;;
57047;SDS011;42934;54.294;18.598;2024-01-06T01:59:18;99.80;;;39.60;;
57047;SDS011;42934;54.294;18.598;2024-01-06T02:01:47;62.83;;;25.70;;
57047;SDS011;42934;54.294;18.598;2024-01-06T02:04:17;59.92;;;25.65;;
57047;SDS011;42934;54.294;18.598;2024-01-06T02:06:46;62.17;;;27.67;;
57047;SDS011;42934;54.294;18.598;2024-01-06T02:09:17;50.85;;;24.52;;
57047;SDS011;42934;54.294;18.598;2024-01-06T02:11:46;54.05;;;25.67;;
57047;SDS011;42934;54.294;18.598;2024-01-06T02:14:15;62.23;;;26.13;;
57047;SDS011;42934;54.294;18.598;2024-01-06T02:16:44;52.72;;;23.77;;
57047;SDS011;42934;54.294;18.598;2024-01-06T02:19:13;66.82;;;28.30;;
57047;SDS011;42934;54.294;18.598;2024-01-06T02:21:48;81.43;;;33.65;;
57047;SDS011;42934;54.294;18.598;2024-01-06T02:24:20;61.85;;;25.75;;
57047;SDS011;42934;54.294;18.598;2024-01-06T02:26:49;60.05;;;25.08;;
57047;SDS011;42934;54.294;18.598;2024-01-06T02:29:18;52.78;;;24.10;;
57047;SDS011;42934;54.294;18.598;2024-01-06T02:31:47;55.30;;;24.67;;
57047;SDS011;42934;54.294;18.598;2024-01-06T02:34:17;52.80;;;23.17;;
57047;SDS011;42934;54.294;18.598;2024-01-06T02:36:46;55.78;;;23.70;;
57047;SDS011;42934;54.294;18.598;2024-01-06T02:39:17;52.15;;;23.65;;
57047;SDS011;42934;54.294;18.598;2024-01-06T02:41:46;49.95;;;22.08;;
57047;SDS011;42934;54.294;18.598;2024-01-06T02:44:15;56.57;;;24.57;;
57047;SDS011;42934;54.294;18.598;2024-01-06T02:46:44;45.53;;;23.17;;
57047;SDS011;42934;54.294;18.598;2024-01-06T02:49:14;60.70;;;24.90;;
57047;SDS011;42934;54.294;18.598;2024-01-06T02:51:43;62.53;;;25.88;;
57047;SDS011;42934;54.294;18.598;2024-01-06T02:54:13;51.80;;;22.80;;
57047;SDS011;42934;54.294;18.598;2024-01-06T02:56:43;41.33;;;19.90;;
57047;SDS011;42934;54.294;18.598;2024-01-06T02:59:12;46.58;;;20.73;;
57047;SDS011;42934;54.294;18.598;2024-01-06T03:01:41;46.00;;;20.77;;
57047;SDS011;42934;54.294;18.598;2024-01-06T03:04:10;49.40;;;20.50;;
57047;SDS011;42934;54.294;18.598;2024-01-06T03:06:39;49.80;;;21.35;;
57047;SDS011;42934;54.294;18.598;2024-01-06T03:09:09;41.70;;;19.67;;
57047;SDS011;42934;54.294;18.598;2024-01-06T03:11:39;45.90;;;19.73;;
57047;SDS011;42934;54.294;18.598;2024-01-06T03:14:08;38.17;;;18.33;;
57047;SDS011;42934;54.294;18.598;2024-01-06T03:16:37;40.58;;;18.33;;
57047;SDS011;42934;54.294;18.598;2024-01-06T03:19:07;42.40;;;18.67;;
57047;SDS011;42934;54.294;18.598;2024-01-06T03:21:36;44.03;;;20.52;;
57047;SDS011;42934;54.294;18.598;2024-01-06T03:24:06;36.05;;;16.77;;
57047;SDS011;42934;54.294;18.598;2024-01-06T03:26:36;40.72;;;16.80;;
57047;SDS011;42934;54.294;18.598;2024-01-06T03:29:06;39.35;;;17.08;;
57047;SDS011;42934;54.294;18.598;2024-01-06T03:34:04;41.15;;;16.60;;
57047;SDS011;42934;54.294;18.598;2024-01-06T03:36:35;42.75;;;18.48;;
57047;SDS011;42934;54.294;18.598;2024-01-06T03:39:04;40.40;;;19.10;;
57047;SDS011;42934;54.294;18.598;2024-01-06T03:41:34;41.92;;;18.83;;
57047;SDS011;42934;54.294;18.598;2024-01-06T03:44:03;40.97;;;18.33;;
57047;SDS011;42934;54.294;18.598;2024-01-06T03:46:34;38.78;;;16.90;;
57047;SDS011;42934;54.294;18.598;2024-01-06T03:49:04;33.97;;;15.60;;
57047;SDS011;42934;54.294;18.598;2024-01-06T03:51:33;30.88;;;12.82;;
57047;SDS011;42934;54.294;18.598;2024-01-06T03:54:02;25.83;;;11.57;;
57047;SDS011;42934;54.294;18.598;2024-01-06T03:56:32;21.92;;;10.25;;
57047;SDS011;42934;54.294;18.598;2024-01-06T03:59:01;25.90;;;9.50;;
57047;SDS011;42934;54.294;18.598;2024-01-06T04:01:30;19.02;;;9.10;;
57047;SDS011;42934;54.294;18.598;2024-01-06T04:04:03;24.95;;;9.40;;
57047;SDS011;42934;54.294;18.598;2024-01-06T04:06:33;24.20;;;10.25;;
57047;SDS011;42934;54.294;18.598;2024-01-06T04:09:02;21.00;;;9.73;;
57047;SDS011;42934;54.294;18.598;2024-01-06T04:11:32;19.33;;;8.95;;
57047;SDS011;42934;54.294;18.598;2024-01-06T04:14:01;19.92;;;8.60;;
57047;SDS011;42934;54.294;18.598;2024-01-06T04:16:30;20.98;;;8.57;;
57047;SDS011;42934;54.294;18.598;2024-01-06T04:19:00;16.17;;;7.53;;
57047;SDS011;42934;54.294;18.598;2024-01-06T04:21:33;13.77;;;7.10;;
57047;SDS011;42934;54.294;18.598;2024-01-06T04:24:03;15.23;;;6.88;;
57047;SDS011;42934;54.294;18.598;2024-01-06T04:26:32;15.45;;;7.07;;
57047;SDS011;42934;54.294;18.598;2024-01-06T04:29:01;12.90;;;6.28;;
57047;SDS011;42934;54.294;18.598;2024-01-06T04:31:30;15.27;;;7.20;;
57047;SDS011;42934;54.294;18.598;2024-01-06T04:34:00;17.27;;;6.93;;
57047;SDS011;42934;54.294;18.598;2024-01-06T04:36:31;16.73;;;7.43;;
57047;SDS011;42934;54.294;18.598;2024-01-06T04:39:00;14.10;;;7.07;;
57047;SDS011;42934;54.294;18.598;2024-01-06T04:41:29;17.90;;;7.70;;
57047;SDS011;42934;54.294;18.598;2024-01-06T04:43:59;14.85;;;7.40;;
57047;SDS011;42934;54.294;18.598;2024-01-06T04:46:28;15.20;;;7.00;;
57047;SDS011;42934;54.294;18.598;2024-01-06T04:48:57;19.08;;;7.28;;
57047;SDS011;42934;54.294;18.598;2024-01-06T04:51:28;14.48;;;5.97;;
57047;SDS011;42934;54.294;18.598;2024-01-06T04:53:58;9.48;;;3.95;;
57047;SDS011;42934;54.294;18.598;2024-01-06T04:56:27;6.40;;;3.47;;
57047;SDS011;42934;54.294;18.598;2024-01-06T04:59:00;2.65;;;1.60;;
57047;SDS011;42934;54.294;18.598;2024-01-06T05:01:29;5.28;;;2.05;;
57047;SDS011;42934;54.294;18.598;2024-01-06T05:03:59;3.78;;;1.50;;
57047;SDS011;42934;54.294;18.598;2024-01-06T05:06:30;2.80;;;1.60;;
57047;SDS011;42934;54.294;18.598;2024-01-06T05:08:59;3.33;;;1.55;;
57047;SDS011;42934;54.294;18.598;2024-01-06T05:11:29;3.85;;;1.50;;
57047;SDS011;42934;54.294;18.598;2024-01-06T05:13:58;1.60;;;1.08;;
57047;SDS011;42934;54.294;18.598;2024-01-06T05:16:27;1.80;;;1.13;;
57047;SDS011;42934;54.294;18.598;2024-01-06T05:18:57;1.98;;;1.33;;
57047;SDS011;42934;54.294;18.598;2024-01-06T05:21:26;2.17;;;1.23;;
57047;SDS011;42934;54.294;18.598;2024-01-06T05:23:57;2.67;;;1.23;;
57047;SDS011;42934;54.294;18.598;2024-01-06T05:26:27;6.82;;;1.60;;
57047;SDS011;42934;54.294;18.598;2024-01-06T05:28:56;2.15;;;1.15;;
57047;SDS011;42934;54.294;18.598;2024-01-06T05:31:25;3.42;;;1.42;;
57047;SDS011;42934;54.294;18.598;2024-01-06T05:33:54;4.32;;;1.40;;
57047;SDS011;42934;54.294;18.598;2024-01-06T05:36:24;2.05;;;1.30;;
57047;SDS011;42934;54.294;18.598;2024-01-06T05:38:53;2.33;;;1.30;;
57047;SDS011;42934;54.294;18.598;2024-01-06T05:41:23;2.40;;;1.30;;
57047;SDS011;42934;54.294;18.598;2024-01-06T05:43:53;3.90;;;1.58;;
57047;SDS011;42934;54.294;18.598;2024-01-06T05:46:23;3.80;;;1.48;;
57047;SDS011;42934;54.294;18.598;2024-01-06T05:48:53;2.30;;;1.45;;
57047;SDS011;42934;54.294;18.598;2024-01-06T05:53:52;3.25;;;1.70;;
57047;SDS011;42934;54.294;18.598;2024-01-06T05:56:23;4.67;;;1.80;;
57047;SDS011;42934;54.294;18.598;2024-01-06T05:58:53;5.75;;;2.10;;
57047;SDS011;42934;54.294;18.598;2024-01-06T06:01:23;3.47;;;2.05;;
57047;SDS011;42934;54.294;18.598;2024-01-06T06:03:52;2.63;;;1.65;;
57047;SDS011;42934;54.294;18.598;2024-01-06T06:06:21;2.33;;;1.65;;
57047;SDS011;42934;54.294;18.598;2024-01-06T06:08:51;3.43;;;1.87;;
57047;SDS011;42934;54.294;18.598;2024-01-06T06:11:20;2.13;;;1.40;;
57047;SDS011;42934;54.294;18.598;2024-01-06T06:13:51;3.07;;;1.40;;
57047;SDS011;42934;54.294;18.598;2024-01-06T06:16:20;2.75;;;1.63;;
57047;SDS011;42934;54.294;18.598;2024-01-06T06:18:49;3.33;;;1.63;;
57047;SDS011;42934;54.294;18.598;2024-01-06T06:21:18;3.85;;;1.75;;
57047;SDS011;42934;54.294;18.598;2024-01-06T06:23:48;4.43;;;2.42;;
57047;SDS011;42934;54.294;18.598;2024-01-06T06:26:17;4.65;;;3.33;;
57047;SDS011;42934;54.294;18.598;2024-01-06T06:28:46;5.82;;;2.33;;
57047;SDS011;42934;54.294;18.598;2024-01-06T06:31:17;6.13;;;2.60;;
57047;SDS011;42934;54.294;18.598;2024-01-06T06:33:46;5.05;;;3.00;;
57047;SDS011;42934;54.294;18.598;2024-01-06T06:36:16;5.10;;;2.75;;
57047;SDS011;42934;54.294;18.598;2024-01-06T06:38:45;6.05;;;2.95;;
57047;SDS011;42934;54.294;18.598;2024-01-06T06:41:14;5.18;;;2.30;;
57047;SDS011;42934;54.294;18.598;2024-01-06T06:43:43;8.05;;;3.28;;
57047;SDS011;42934;54.294;18.598;2024-01-06T06:46:13;6.23;;;2.73;;
57047;SDS011;42934;54.294;18.598;2024-01-06T06:48:43;7.63;;;3.30;;
57047;SDS011;42934;54.294;18.598;2024-01-06T06:51:13;8.90;;;3.00;;
57047;SDS011;42934;54.294;18.598;2024-01-06T06:53:42;6.35;;;2.72;;
57047;SDS011;42934;54.294;18.598;2024-01-06T06:56:14;4.50;;;2.60;;
57047;SDS011;42934;54.294;18.598;2024-01-06T06:58:44;8.25;;;3.50;;
57047;SDS011;42934;54.294;18.598;2024-01-06T07:01:13;22.58;;;8.02;;
57047;SDS011;42934;54.294;18.598;2024-01-06T07:03:44;28.30;;;10.25;;
57047;SDS011;42934;54.294;18.598;2024-01-06T07:06:14;20.88;;;8.32;;
57047;SDS011;42934;54.294;18.598;2024-01-06T07:08:43;17.73;;;6.95;;
57047;SDS011;42934;54.294;18.598;2024-01-06T07:11:12;15.25;;;5.90;;
57047;SDS011;42934;54.294;18.598;2024-01-06T07:13:45;97.13;;;18.08;;
57047;SDS011;42934;54.294;18.598;2024-01-06T07:16:14;86.97;;;16.38;;
57047;SDS011;42934;54.294;18.598;2024-01-06T07:18:47;20.50;;;6.10;;
57047;SDS011;42934;54.294;18.598;2024-01-06T07:21:16;17.85;;;6.40;;
57047;SDS011;42934;54.294;18.598;2024-01-06T07:23:45;15.38;;;4.80;;
57047;SDS011;42934;54.294;18.598;2024-01-06T07:26:15;9.77;;;4.17;;
57047;SDS011;42934;54.294;18.598;2024-01-06T07:28:44;7.40;;;3.72;;
57047;SDS011;42934;54.294;18.598;2024-01-06T07:31:14;11.97;;;5.77;;
57047;SDS011;42934;54.294;18.598;2024-01-06T07:33:44;16.88;;;6.88;;
57047;SDS011;42934;54.294;18.598;2024-01-06T07:36:15;10.95;;;5.13;;
57047;SDS011;42934;54.294;18.598;2024-01-06T07:38:44;10.07;;;3.83;;
57047;SDS011;42934;54.294;18.598;2024-01-06T07:41:14;7.35;;;3.45;;
57047;SDS011;42934;54.294;18.598;2024-01-06T07:43:43;14.20;;;5.05;;
57047;SDS011;42934;54.294;18.598;2024-01-06T07:46:12;7.60;;;3.55;;
57047;SDS011;42934;54.294;18.598;2024-01-06T07:48:44;4.90;;;3.08;;
57047;SDS011;42934;54.294;18.598;2024-01-06T07:51:15;12.88;;;4.03;;
57047;SDS011;42934;54.294;18.598;2024-01-06T07:53:44;10.02;;;4.47;;
57047;SDS011;42934;54.294;18.598;2024-01-06T07:56:13;9.80;;;4.53;;
57047;SDS011;42934;54.294;18.598;2024-01-06T07:58:42;9.18;;;4.38;;
57047;SDS011;42934;54.294;18.598;2024-01-06T08:01:12;10.85;;;5.25;;
57047;SDS011;42934;54.294;18.598;2024-01-06T08:03:41;12.40;;;5.20;;
57047;SDS011;42934;54.294;18.598;2024-01-06T08:06:12;11.85;;;5.32;;
57047;SDS011;42934;54.294;18.598;2024-01-06T08:08:42;14.50;;;5.43;;
57047;SDS011;42934;54.294;18.598;2024-01-06T08:11:12;13.20;;;5.78;;
57047;SDS011;42934;54.294;18.598;2024-01-06T08:13:42;9.85;;;4.50;;
57047;SDS011;42934;54.294;18.598;2024-01-06T08:16:11;9.75;;;4.25;;
57047;SDS011;42934;54.294;18.598;2024-01-06T08:18:40;6.30;;;3.42;;
57047;SDS011;42934;54.294;18.598;2024-01-06T08:21:10;6.60;;;2.78;;
57047;SDS011;42934;54.294;18.598;2024-01-06T08:23:40;5.43;;;2.35;;
57047;SDS011;42934;54.294;18.598;2024-01-06T08:26:10;7.75;;;2.67;;
57047;SDS011;42934;54.294;18.598;2024-01-06T08:28:39;5.43;;;2.23;;
57047;SDS011;42934;54.294;18.598;2024-01-06T08:31:08;4.65;;;2.03;;
57047;SDS011;42934;54.294;18.598;2024-01-06T08:33:38;3.63;;;2.08;;
57047;SDS011;42934;54.294;18.598;2024-01-06T08:36:07;8.10;;;2.67;;
57047;SDS011;42934;54.294;18.598;2024-01-06T08:38:38;7.13;;;2.53;;
57047;SDS011;42934;54.294;18.598;2024-01-06T08:41:07;4.70;;;2.15;;
57047;SDS011;42934;54.294;18.598;2024-01-06T08:43:36;5.15;;;2.47;;
57047;SDS011;42934;54.294;18.598;2024-01-06T08:46:06;4.50;;;1.60;;
57047;SDS011;42934;54.294;18.598;2024-01-06T08:48:35;3.25;;;1.65;;
57047;SDS011;42934;54.294;18.598;2024-01-06T08:51:04;3.13;;;1.40;;
57047;SDS011;42934;54.294;18.598;2024-01-06T08:53:33;8.32;;;2.10;;
57047;SDS011;42934;54.294;18.598;2024-01-06T08:56:04;2.97;;;1.70;;
57047;SDS011;42934;54.294;18.598;2024-01-06T08:58:34;3.15;;;1.75;;
57047;SDS011;42934;54.294;18.598;2024-01-06T09:01:03;10.15;;;3.25;;
57047;SDS011;42934;54.294;18.598;2024-01-06T09:03:32;7.67;;;2.90;;
57047;SDS011;42934;54.294;18.598;2024-01-06T09:06:02;10.13;;;3.27;;
57047;SDS011;42934;54.294;18.598;2024-01-06T09:08:32;10.68;;;3.97;;
57047;SDS011;42934;54.294;18.598;2024-01-06T09:11:01;9.65;;;3.88;;
57047;SDS011;42934;54.294;18.598;2024-01-06T09:13:31;6.70;;;3.53;;
57047;SDS011;42934;54.294;18.598;2024-01-06T09:16:01;11.25;;;5.88;;
57047;SDS011;42934;54.294;18.598;2024-01-06T09:18:30;9.27;;;5.10;;
57047;SDS011;42934;54.294;18.598;2024-01-06T09:21:00;7.05;;;4.47;;
57047;SDS011;42934;54.294;18.598;2024-01-06T09:23:29;12.38;;;5.50;;
57047;SDS011;42934;54.294;18.598;2024-01-06T09:25:59;7.30;;;4.45;;
57047;SDS011;42934;54.294;18.598;2024-01-06T09:28:29;10.48;;;3.67;;
57047;SDS011;42934;54.294;18.598;2024-01-06T09:31:00;6.07;;;2.53;;
57047;SDS011;42934;54.294;18.598;2024-01-06T09:33:31;4.00;;;2.13;;
57047;SDS011;42934;54.294;18.598;2024-01-06T09:36:01;3.35;;;2.00;;
57047;SDS011;42934;54.294;18.598;2024-01-06T09:38:31;3.67;;;1.93;;
57047;SDS011;42934;54.294;18.598;2024-01-06T09:41:00;2.23;;;1.37;;
57047;SDS011;42934;54.294;18.598;2024-01-06T09:43:29;3.00;;;1.63;;
57047;SDS011;42934;54.294;18.598;2024-01-06T09:46:02;3.53;;;1.77;;
57047;SDS011;42934;54.294;18.598;2024-01-06T09:48:39;5.13;;;2.13;;
57047;SDS011;42934;54.294;18.598;2024-01-06T09:51:10;7.38;;;2.22;;
57047;SDS011;42934;54.294;18.598;2024-01-06T09:53:42;5.05;;;2.00;;
57047;SDS011;42934;54.294;18.598;2024-01-06T09:56:17;3.42;;;1.80;;
57047;SDS011;42934;54.294;18.598;2024-01-06T09:58:48;4.75;;;2.30;;
57047;SDS011;42934;54.294;18.598;2024-01-06T10:01:18;4.45;;;2.33;;
57047;SDS011;42934;54.294;18.598;2024-01-06T10:03:47;10.52;;;3.28;;
57047;SDS011;42934;54.294;18.598;2024-01-06T10:06:17;7.55;;;3.10;;
57047;SDS011;42934;54.294;18.598;2024-01-06T10:08:48;7.63;;;3.90;;
57047;SDS011;42934;54.294;18.598;2024-01-06T10:11:18;8.93;;;3.50;;
57047;SDS011;42934;54.294;18.598;2024-01-06T10:13:51;5.35;;;3.13;;
57047;SDS011;42934;54.294;18.598;2024-01-06T10:16:21;5.15;;;3.08;;
57047;SDS011;42934;54.294;18.598;2024-01-06T10:18:50;4.60;;;2.63;;
57047;SDS011;42934;54.294;18.598;2024-01-06T10:21:21;8.45;;;3.15;;
57047;SDS011;42934;54.294;18.598;2024-01-06T10:23:50;3.85;;;2.35;;
57047;SDS011;42934;54.294;18.598;2024-01-06T10:26:19;5.97;;;2.97;;
57047;SDS011;42934;54.294;18.598;2024-01-06T10:28:50;6.00;;;3.20;;
57047;SDS011;42934;54.294;18.598;2024-01-06T10:31:19;6.40;;;3.15;;
57047;SDS011;42934;54.294;18.598;2024-01-06T10:33:49;9.13;;;3.40;;
57047;SDS011;42934;54.294;18.598;2024-01-06T10:36:18;9.45;;;4.25;;
57047;SDS011;42934;54.294;18.598;2024-01-06T10:38:51;8.00;;;3.50;;
57047;SDS011;42934;54.294;18.598;2024-01-06T10:41:21;9.55;;;3.22;;
57047;SDS011;42934;54.294;18.598;2024-01-06T10:43:53;7.63;;;3.30;;
57047;SDS011;42934;54.294;18.598;2024-01-06T10:46:23;8.80;;;4.28;;
57047;SDS011;42934;54.294;18.598;2024-01-06T10:48:52;8.77;;;4.10;;
57047;SDS011;42934;54.294;18.598;2024-01-06T10:51:25;12.25;;;5.18;;
57047;SDS011;42934;54.294;18.598;2024-01-06T10:53:57;9.35;;;4.20;;
57047;SDS011;42934;54.294;18.598;2024-01-06T10:56:29;6.32;;;2.83;;
57047;SDS011;42934;54.294;18.598;2024-01-06T10:59:00;7.45;;;2.85;;
57047;SDS011;42934;54.294;18.598;2024-01-06T11:01:31;10.43;;;3.85;;
57047;SDS011;42934;54.294;18.598;2024-01-06T11:04:00;9.65;;;4.25;;
57047;SDS011;42934;54.294;18.598;2024-01-06T11:06:33;9.45;;;3.55;;
57047;SDS011;42934;54.294;18.598;2024-01-06T11:09:04;7.57;;;3.42;;
57047;SDS011;42934;54.294;18.598;2024-01-06T11:11:39;6.55;;;3.30;;
57047;SDS011;42934;54.294;18.598;2024-01-06T11:14:20;6.82;;;3.30;;
57047;SDS011;42934;54.294;18.598;2024-01-06T11:16:51;6.35;;;3.53;;
57047;SDS011;42934;54.294;18.598;2024-01-06T11:22:24;8.35;;;4.50;;
57047;SDS011;42934;54.294;18.598;2024-01-06T11:24:56;7.22;;;2.83;;
57047;SDS011;42934;54.294;18.598;2024-01-06T11:27:32;7.68;;;3.20;;
57047;SDS011;42934;54.294;18.598;2024-01-06T11:30:04;9.77;;;4.00;;
57047;SDS011;42934;54.294;18.598;2024-01-06T11:32:35;6.22;;;3.28;;
57047;SDS011;42934;54.294;18.598;2024-01-06T11:35:09;6.50;;;3.40;;
57047;SDS011;42934;54.294;18.598;2024-01-06T11:37:56;6.18;;;3.20;;
57047;SDS011;42934;54.294;18.598;2024-01-06T11:40:31;8.13;;;3.40;;
57047;SDS011;42934;54.294;18.598;2024-01-06T11:43:04;9.68;;;4.10;;
57047;SDS011;42934;54.294;18.598;2024-01-06T11:45:36;7.65;;;4.00;;
57047;SDS011;42934;54.294;18.598;2024-01-06T11:48:09;5.57;;;3.17;;
57047;SDS011;42934;54.294;18.598;2024-01-06T11:50:40;7.75;;;3.65;;
57047;SDS011;42934;54.294;18.598;2024-01-06T11:53:10;8.50;;;3.70;;
57047;SDS011;42934;54.294;18.598;2024-01-06T11:55:39;10.55;;;3.75;;
57047;SDS011;42934;54.294;18.598;2024-01-06T11:58:09;7.50;;;3.95;;
57047;SDS011;42934;54.294;18.598;2024-01-06T12:00:40;8.20;;;3.28;;
57047;SDS011;42934;54.294;18.598;2024-01-06T12:03:15;6.28;;;3.35;;
57047;SDS011;42934;54.294;18.598;2024-01-06T12:05:44;6.32;;;2.60;;
57047;SDS011;42934;54.294;18.598;2024-01-06T12:08:14;7.27;;;3.33;;
57047;SDS011;42934;54.294;18.598;2024-01-06T12:10:48;7.63;;;3.83;;
57047;SDS011;42934;54.294;18.598;2024-01-06T12:13:19;6.45;;;3.22;;
57047;SDS011;42934;54.294;18.598;2024-01-06T12:15:50;7.18;;;3.08;;
57047;SDS011;42934;54.294;18.598;2024-01-06T12:18:20;7.53;;;3.65;;
57047;SDS011;42934;54.294;18.598;2024-01-06T12:20:49;6.63;;;2.53;;
57047;SDS011;42934;54.294;18.598;2024-01-06T12:23:25;9.13;;;3.90;;
57047;SDS011;42934;54.294;18.598;2024-01-06T12:25:55;6.55;;;3.25;;
57047;SDS011;42934;54.294;18.598;2024-01-06T12:28:24;6.53;;;3.73;;
57047;SDS011;42934;54.294;18.598;2024-01-06T12:30:57;9.55;;;3.45;;
57047;SDS011;42934;54.294;18.598;2024-01-06T12:33:26;8.77;;;4.13;;
57047;SDS011;42934;54.294;18.598;2024-01-06T12:35:55;6.88;;;2.88;;
57047;SDS011;42934;54.294;18.598;2024-01-06T12:38:33;6.85;;;3.08;;
57047;SDS011;42934;54.294;18.598;2024-01-06T12:41:03;9.48;;;3.35;;
57047;SDS011;42934;54.294;18.598;2024-01-06T12:43:33;10.57;;;3.75;;
57047;SDS011;42934;54.294;18.598;2024-01-06T12:46:06;10.10;;;4.53;;
57047;SDS011;42934;54.294;18.598;2024-01-06T12:48:36;8.05;;;3.63;;
57047;SDS011;42934;54.294;18.598;2024-01-06T12:51:06;9.20;;;4.32;;
57047;SDS011;42934;54.294;18.598;2024-01-06T12:53:35;5.78;;;3.00;;
57047;SDS011;42934;54.294;18.598;2024-01-06T12:56:05;7.93;;;3.33;;
57047;SDS011;42934;54.294;18.598;2024-01-06T12:58:35;8.40;;;3.38;;
57047;SDS011;42934;54.294;18.598;2024-01-06T13:01:04;9.32;;;4.32;;
57047;SDS011;42934;54.294;18.598;2024-01-06T13:03:35;10.07;;;3.75;;
57047;SDS011;42934;54.294;18.598;2024-01-06T13:06:04;7.68;;;3.20;;
57047;SDS011;42934;54.294;18.598;2024-01-06T13:08:34;4.07;;;1.73;;
57047;SDS011;42934;54.294;18.598;2024-01-06T13:11:03;4.05;;;2.05;;
57047;SDS011;42934;54.294;18.598;2024-01-06T13:13:33;7.28;;;2.50;;
57047;SDS011;42934;54.294;18.598;2024-01-06T13:16:02;7.50;;;3.22;;
57047;SDS011;42934;54.294;18.598;2024-01-06T13:30:51;5.72;;;3.35;;
57047;SDS011;42934;54.294;18.598;2024-01-06T13:33:21;5.88;;;2.75;;
57047;SDS011;42934;54.294;18.598;2024-01-06T13:35:50;4.25;;;2.35;;
57047;SDS011;42934;54.294;18.598;2024-01-06T13:38:20;5.65;;;3.13;;
57047;SDS011;42934;54.294;18.598;2024-01-06T13:40:49;9.95;;;4.00;;
57047;SDS011;42934;54.294;18.598;2024-01-06T13:43:19;8.48;;;3.60;;
57047;SDS011;42934;54.294;18.598;2024-01-06T13:45:48;8.40;;;3.95;;
57047;SDS011;42934;54.294;18.598;2024-01-06T13:48:19;7.93;;;4.23;;
57047;SDS011;42934;54.294;18.598;2024-01-06T13:50:48;5.90;;;3.78;;
57047;SDS011;42934;54.294;18.598;2024-01-06T13:53:18;6.15;;;3.13;;
57047;SDS011;42934;54.294;18.598;2024-01-06T13:55:47;4.63;;;2.72;;
57047;SDS011;42934;54.294;18.598;2024-01-06T13:58:16;5.32;;;2.33;;
57047;SDS011;42934;54.294;18.598;2024-01-06T14:00:45;4.18;;;2.30;;
57047;SDS011;42934;54.294;18.598;2024-01-06T14:03:16;4.97;;;2.65;;
57047;SDS011;42934;54.294;18.598;2024-01-06T14:05:46;5.95;;;2.70;;
57047;SDS011;42934;54.294;18.598;2024-01-06T14:08:18;9.07;;;3.88;;
57047;SDS011;42934;54.294;18.598;2024-01-06T14:10:47;9.27;;;4.60;;
57047;SDS011;42934;54.294;18.598;2024-01-06T14:13:16;7.25;;;4.07;;
57047;SDS011;42934;54.294;18.598;2024-01-06T14:15:45;8.10;;;3.10;;
57047;SDS011;42934;54.294;18.598;2024-01-06T14:18:15;8.77;;;3.67;;
57047;SDS011;42934;54.294;18.598;2024-01-06T14:20:45;9.68;;;4.47;;
57047;SDS011;42934;54.294;18.598;2024-01-06T14:23:16;7.35;;;3.50;;
57047;SDS011;42934;54.294;18.598;2024-01-06T14:28:15;7.32;;;3.67;;
57047;SDS011;42934;54.294;18.598;2024-01-06T14:30:44;6.05;;;3.28;;
57047;SDS011;42934;54.294;18.598;2024-01-06T14:33:14;10.65;;;3.58;;
57047;SDS011;42934;54.294;18.598;2024-01-06T14:35:47;5.10;;;2.97;;
57047;SDS011;42934;54.294;18.598;2024-01-06T14:38:17;6.63;;;3.33;;
57047;SDS011;42934;54.294;18.598;2024-01-06T14:40:46;7.50;;;3.78;;
57047;SDS011;42934;54.294;18.598;2024-01-06T14:43:15;8.07;;;3.75;;
57047;SDS011;42934;54.294;18.598;2024-01-06T14:45:44;6.97;;;3.42;;
57047;SDS011;42934;54.294;18.598;2024-01-06T14:48:13;8.57;;;3.20;;
57047;SDS011;42934;54.294;18.598;2024-01-06T14:50:43;7.57;;;2.90;;
57047;SDS011;42934;54.294;18.598;2024-01-06T14:53:13;8.18;;;3.03;;
57047;SDS011;42934;54.294;18.598;2024-01-06T14:58:11;6.45;;;3.15;;
57047;SDS011;42934;54.294;18.598;2024-01-06T15:00:40;9.23;;;3.38;;
57047;SDS011;42934;54.294;18.598;2024-01-06T15:03:10;8.85;;;3.65;;
57047;SDS011;42934;54.294;18.598;2024-01-06T15:05:39;8.80;;;3.88;;
57047;SDS011;42934;54.294;18.598;2024-01-06T15:08:08;6.75;;;3.40;;